Time;durP1;ratioP1;P1;durP2;ratioP2;P2;SDS_P1;SDS_P2;PMS_P1;PMS_P2;Temp;Humidity;BMP_temperature;BMP_pressure;BME280_temperature;BME280_humidity;BME280_pressure;Samples;Min_cycle;Max_cycle;Signal;HPM_P1;HPM_P2
2023/12/16 00:00:43;;;;;;;9.97;5.67;;;;;;;5.95;100.00;102872.91;4986668;28;20229;-69
2023/12/16 00:03:10;;;;;;;9.70;5.50;;;;;;;5.95;100.00;102870.28;4986813;28;20311;-71
2023/12/16 00:05:39;;;;;;;9.27;5.40;;;;;;;5.89;100.00;102867.19;5003183;28;20273;-69
2023/12/16 00:08:05;;;;;;;12.33;5.50;;;;;;;5.83;100.00;102872.00;5010551;28;20285;-70
2023/12/16 00:10:32;;;;;;;12.47;5.77;;;;;;;5.82;100.00;102876.34;5014231;28;20202;-71
2023/12/16 00:12:59;;;;;;;13.30;6.00;;;;;;;5.79;100.00;102886.66;5007686;28;20648;-69
2023/12/16 00:15:26;;;;;;;9.53;5.40;;;;;;;5.77;100.00;102883.00;5009963;28;20221;-70
2023/12/16 00:17:52;;;;;;;10.03;5.10;;;;;;;5.83;100.00;102886.06;5023331;28;20211;-71
2023/12/16 00:20:18;;;;;;;12.27;5.43;;;;;;;5.81;100.00;102890.31;5008246;28;20257;-69
2023/12/16 00:22:45;;;;;;;8.77;5.07;;;;;;;5.88;100.00;102894.28;5003540;28;20231;-70
2023/12/16 00:25:12;;;;;;;9.83;5.13;;;;;;;5.88;100.00;102891.66;5020196;28;20223;-70
2023/12/16 00:27:38;;;;;;;9.07;5.70;;;;;;;5.87;100.00;102882.84;5010142;28;21672;-70
2023/12/16 00:30:06;;;;;;;9.37;5.57;;;;;;;5.80;100.00;102890.19;5013014;28;20209;-70
2023/12/16 00:32:32;;;;;;;13.00;5.43;;;;;;;5.81;100.00;102897.28;5005306;28;20200;-69
2023/12/16 00:34:59;;;;;;;11.07;5.47;;;;;;;5.82;100.00;102897.38;5008082;28;20315;-69
2023/12/16 00:37:25;;;;;;;10.03;5.77;;;;;;;5.78;100.00;102897.06;5010336;28;20206;-69
2023/12/16 00:39:52;;;;;;;11.03;6.00;;;;;;;5.84;100.00;102903.66;5010287;28;20204;-71
2023/12/16 00:42:18;;;;;;;8.47;5.27;;;;;;;5.79;100.00;102907.69;5006424;28;20699;-70
2023/12/16 00:44:44;;;;;;;10.73;5.60;;;;;;;5.78;100.00;102911.13;5012421;28;20223;-70
2023/12/16 00:47:11;;;;;;;11.70;5.30;;;;;;;5.75;100.00;102907.34;5006106;28;20297;-70
2023/12/16 00:49:37;;;;;;;10.33;5.37;;;;;;;5.82;100.00;102907.00;5008825;28;20215;-70
2023/12/16 00:52:04;;;;;;;10.73;5.57;;;;;;;5.97;100.00;102902.88;5010674;28;20199;-69
2023/12/16 00:54:31;;;;;;;10.70;5.30;;;;;;;5.94;100.00;102900.94;5010657;28;20668;-69
2023/12/16 00:56:57;;;;;;;11.10;5.47;;;;;;;5.88;100.00;102889.94;5011435;28;20258;-69
2023/12/16 00:59:26;;;;;;;9.40;5.43;;;;;;;5.90;100.00;102895.34;5004905;28;20206;-69
2023/12/16 01:01:52;;;;;;;9.13;4.90;;;;;;;5.86;100.00;102896.81;5007432;28;20212;-70
2023/12/16 01:04:19;;;;;;;9.43;5.10;;;;;;;5.89;100.00;102890.84;5006791;28;20257;-70
2023/12/16 01:06:45;;;;;;;10.30;5.37;;;;;;;5.87;100.00;102889.81;5010014;28;20204;-69
2023/12/16 01:09:12;;;;;;;9.37;5.33;;;;;;;5.95;100.00;102899.22;5006824;28;20609;-70
2023/12/16 01:11:40;;;;;;;8.40;4.97;;;;;;;5.93;100.00;102895.56;5007542;28;20212;-71
2023/12/16 01:14:06;;;;;;;10.33;4.70;;;;;;;5.96;100.00;102896.69;5007632;28;20206;-69
2023/12/16 01:16:33;;;;;;;8.87;4.70;;;;;;;5.94;100.00;102898.28;5008115;28;20204;-70
2023/12/16 01:18:59;;;;;;;13.03;4.50;;;;;;;5.85;100.00;102901.94;5005898;28;20208;-70
2023/12/16 01:21:26;;;;;;;8.33;4.70;;;;;;;5.94;100.00;102900.00;5006527;28;20204;-70
2023/12/16 01:23:52;;;;;;;9.47;5.03;;;;;;;5.87;100.00;102903.88;5007226;28;20224;-70
2023/12/16 01:26:21;;;;;;;8.93;4.57;;;;;;;5.85;100.00;102912.47;5008332;28;20666;-69
2023/12/16 01:28:48;;;;;;;8.87;5.10;;;;;;;5.91;100.00;102905.97;5011565;28;20235;-69
2023/12/16 01:31:14;;;;;;;11.23;5.03;;;;;;;5.95;100.00;102909.72;5000883;28;20208;-69
2023/12/16 01:33:41;;;;;;;11.23;4.53;;;;;;;5.89;100.00;102912.84;5011315;28;20203;-70
2023/12/16 01:36:08;;;;;;;12.70;4.67;;;;;;;5.87;100.00;102913.50;5011467;28;20222;-70
2023/12/16 01:38:34;;;;;;;11.07;5.37;;;;;;;5.82;100.00;102907.00;5010081;28;20235;-70
2023/12/16 01:41:01;;;;;;;11.23;5.10;;;;;;;5.78;100.00;102903.22;5011712;28;20206;-69
2023/12/16 01:43:27;;;;;;;9.50;4.83;;;;;;;5.84;100.00;102914.19;5010981;28;20222;-69
2023/12/16 01:46:01;;;;;;;10.27;5.00;;;;;;;5.87;100.00;102911.78;5010843;28;20219;-70
2023/12/16 01:48:29;;;;;;;8.97;4.77;;;;;;;6.04;100.00;102922.66;5010874;28;20258;-70
2023/12/16 01:50:57;;;;;;;8.43;4.80;;;;;;;5.99;100.00;102906.50;5011680;28;20683;-70
2023/12/16 01:53:25;;;;;;;13.23;4.50;;;;;;;5.95;100.00;102913.28;5010914;28;20203;-69
2023/12/16 01:55:52;;;;;;;8.37;4.63;;;;;;;5.91;100.00;102920.84;5009746;28;20220;-69
2023/12/16 01:58:20;;;;;;;8.20;4.90;;;;;;;5.94;100.00;102916.72;5010798;28;20651;-68
2023/12/16 02:00:48;;;;;;;11.70;5.13;;;;;;;6.01;100.00;102920.72;4990550;28;20738;-68
2023/12/16 02:03:15;;;;;;;8.83;4.73;;;;;;;5.97;100.00;102916.00;5010353;28;20238;-69
2023/12/16 02:05:42;;;;;;;10.37;5.10;;;;;;;5.93;100.00;102919.22;5008437;28;20731;-69
2023/12/16 02:08:08;;;;;;;9.50;4.90;;;;;;;5.87;100.00;102924.00;5003645;28;20204;-69
2023/12/16 02:10:34;;;;;;;11.00;4.57;;;;;;;5.80;100.00;102912.13;5012257;28;20295;-68
2023/12/16 02:13:02;;;;;;;9.60;5.07;;;;;;;5.75;100.00;102907.34;5010750;28;20216;-68
2023/12/16 02:15:28;;;;;;;9.70;5.03;;;;;;;5.76;100.00;102914.44;5006595;28;20264;-68
2023/12/16 02:17:55;;;;;;;8.50;4.60;;;;;;;5.74;100.00;102919.59;5010086;28;20206;-68
2023/12/16 02:20:22;;;;;;;8.20;4.53;;;;;;;5.96;100.00;102925.63;5010353;28;20621;-69
2023/12/16 02:22:50;;;;;;;11.00;4.53;;;;;;;6.04;100.00;102927.91;5009929;28;20246;-69
2023/12/16 02:25:17;;;;;;;9.00;4.90;;;;;;;6.00;100.00;102939.91;5007286;28;20698;-69
2023/12/16 02:27:45;;;;;;;8.80;4.57;;;;;;;6.03;100.00;102937.53;5009968;28;20972;-69
2023/12/16 02:30:12;;;;;;;8.20;4.43;;;;;;;5.92;100.00;102930.56;5012762;28;20204;-68
2023/12/16 02:32:41;;;;;;;7.97;4.53;;;;;;;5.82;100.00;102926.31;5013026;28;20591;-69
2023/12/16 02:35:07;;;;;;;8.97;4.73;;;;;;;5.88;100.00;102946.88;5008340;28;20250;-69
2023/12/16 02:37:34;;;;;;;8.87;4.67;;;;;;;5.87;100.00;102937.16;5009494;28;20207;-68
2023/12/16 02:40:00;;;;;;;8.93;4.93;;;;;;;5.79;100.00;102935.69;4999504;28;20294;-69
2023/12/16 02:42:30;;;;;;;8.30;4.70;;;;;;;5.74;100.00;102942.31;5008558;28;20204;-70
2023/12/16 02:44:56;;;;;;;7.47;4.50;;;;;;;5.70;100.00;102938.56;5003510;28;20226;-70
2023/12/16 02:47:23;;;;;;;9.30;4.27;;;;;;;5.71;100.00;102936.84;5011590;28;20292;-69
2023/12/16 02:49:49;;;;;;;9.73;4.50;;;;;;;5.75;100.00;102949.41;5013364;28;20210;-69
2023/12/16 02:52:16;;;;;;;7.87;3.90;;;;;;;5.72;100.00;102939.59;5005079;28;20626;-70
2023/12/16 02:54:42;;;;;;;9.07;4.50;;;;;;;5.67;100.00;102935.72;5007751;28;20240;-69
2023/12/16 02:57:09;;;;;;;6.67;3.83;;;;;;;5.66;100.00;102936.50;5009119;28;20209;-69
2023/12/16 02:59:36;;;;;;;7.07;3.70;;;;;;;5.66;100.00;102934.81;5009879;28;20209;-69
2023/12/16 03:02:02;;;;;;;8.80;4.07;;;;;;;5.65;100.00;102930.34;5012326;28;20215;-68
2023/12/16 03:04:28;;;;;;;7.77;3.80;;;;;;;5.68;100.00;102934.00;5007121;28;20317;-68
2023/12/16 03:06:55;;;;;;;8.20;3.73;;;;;;;5.65;100.00;102930.34;5009206;28;20587;-68
2023/12/16 03:09:21;;;;;;;9.53;4.00;;;;;;;5.64;100.00;102919.72;5012839;28;20204;-69
2023/12/16 03:11:49;;;;;;;7.17;3.80;;;;;;;5.63;100.00;102921.44;5029130;28;20211;-69
2023/12/16 03:14:16;;;;;;;8.20;3.90;;;;;;;5.61;100.00;102919.50;5010689;28;20262;-69
2023/12/16 03:16:43;;;;;;;7.87;4.00;;;;;;;5.68;100.00;102924.41;5013525;28;20362;-68
2023/12/16 03:19:09;;;;;;;10.17;4.20;;;;;;;5.69;100.00;102923.59;5006266;28;20217;-69
2023/12/16 03:21:36;;;;;;;8.63;4.37;;;;;;;5.69;100.00;102920.97;5006542;28;20214;-69
2023/12/16 03:24:03;;;;;;;9.67;4.70;;;;;;;5.85;100.00;102926.53;5008130;28;20228;-68
2023/12/16 03:26:30;;;;;;;9.80;4.50;;;;;;;5.88;100.00;102942.53;5013027;28;20195;-69
2023/12/16 03:28:56;;;;;;;11.23;4.70;;;;;;;5.85;100.00;102936.13;5009788;28;20215;-69
2023/12/16 03:31:23;;;;;;;12.07;4.40;;;;;;;5.80;100.00;102934.88;5007080;28;20230;-69
2023/12/16 03:33:49;;;;;;;7.93;3.97;;;;;;;5.80;100.00;102930.53;5009832;28;20269;-69
2023/12/16 03:36:16;;;;;;;7.80;4.53;;;;;;;5.72;100.00;102926.44;5011944;28;20315;-70
2023/12/16 03:38:42;;;;;;;7.47;4.00;;;;;;;5.68;100.00;102926.09;5006915;28;20203;-70
2023/12/16 03:41:11;;;;;;;9.63;4.50;;;;;;;5.62;100.00;102932.75;5000441;28;20208;-68
2023/12/16 03:43:38;;;;;;;11.40;4.50;;;;;;;5.63;100.00;102928.41;5007181;28;20222;-68
2023/12/16 03:46:04;;;;;;;7.57;4.47;;;;;;;5.60;100.00;102926.47;5012263;28;20230;-68
2023/12/16 03:48:31;;;;;;;11.87;4.60;;;;;;;5.56;100.00;102921.75;5009201;28;20208;-68
2023/12/16 03:50:57;;;;;;;9.77;4.10;;;;;;;5.63;100.00;102923.16;5010373;28;20211;-69
2023/12/16 03:53:24;;;;;;;13.87;4.40;;;;;;;5.71;100.00;102926.34;5014007;28;20304;-69
2023/12/16 03:55:51;;;;;;;7.80;4.00;;;;;;;5.69;100.00;102934.09;5005481;28;20615;-68
2023/12/16 03:58:17;;;;;;;10.37;4.53;;;;;;;5.64;100.00;102914.47;5008408;28;20231;-68
2023/12/16 04:00:43;;;;;;;8.80;4.23;;;;;;;5.58;100.00;102928.03;5003848;28;20203;-70
2023/12/16 04:03:10;;;;;;;10.37;4.07;;;;;;;5.58;100.00;102927.13;5006994;28;20235;-68
2023/12/16 04:05:36;;;;;;;7.57;4.30;;;;;;;5.51;100.00;102922.22;5011274;28;20241;-69
2023/12/16 04:08:03;;;;;;;12.07;4.07;;;;;;;5.58;100.00;102927.13;5028484;28;20210;-68
2023/12/16 04:10:30;;;;;;;7.57;3.93;;;;;;;5.56;100.00;102932.25;5018287;28;20201;-69
2023/12/16 04:12:56;;;;;;;7.23;3.97;;;;;;;5.50;100.00;102925.63;5012816;28;20195;-69
2023/12/16 04:15:23;;;;;;;7.40;3.87;;;;;;;5.50;100.00;102926.56;5007452;28;20726;-69
2023/12/16 04:17:49;;;;;;;8.70;4.23;;;;;;;5.56;100.00;102927.00;5009907;28;20217;-69
2023/12/16 04:20:16;;;;;;;8.93;3.83;;;;;;;5.62;100.00;102921.31;5008407;28;20210;-70
2023/12/16 04:22:43;;;;;;;10.10;4.07;;;;;;;5.57;100.00;102914.78;5011222;28;20209;-68
2023/12/16 04:25:10;;;;;;;6.00;3.47;;;;;;;5.59;100.00;102914.09;5006926;28;20227;-69
2023/12/16 04:27:38;;;;;;;8.20;3.90;;;;;;;5.64;100.00;102923.25;5007057;28;20215;-69
2023/12/16 04:30:05;;;;;;;8.50;3.60;;;;;;;5.58;100.00;102917.50;5004653;28;20722;-68
2023/12/16 04:32:34;;;;;;;7.60;3.40;;;;;;;5.56;100.00;102913.88;5007634;28;20649;-69
2023/12/16 04:35:00;;;;;;;7.53;3.70;;;;;;;5.55;100.00;102916.38;5009576;28;20218;-69
2023/12/16 04:37:26;;;;;;;5.20;3.20;;;;;;;5.54;100.00;102912.84;5007651;28;20285;-68
2023/12/16 04:39:53;;;;;;;9.20;3.30;;;;;;;5.52;100.00;102921.41;5003499;28;20213;-68
2023/12/16 04:42:19;;;;;;;9.57;3.83;;;;;;;5.50;100.00;102925.63;5009202;28;20211;-69
2023/12/16 04:44:46;;;;;;;8.97;3.93;;;;;;;5.54;100.00;102930.31;5006505;28;20222;-70
2023/12/16 04:47:13;;;;;;;7.77;3.70;;;;;;;5.53;100.00;102925.88;5007929;28;20722;-68
2023/12/16 04:49:40;;;;;;;12.87;3.70;;;;;;;5.48;100.00;102919.34;5007208;28;20231;-68
2023/12/16 04:52:06;;;;;;;6.93;3.80;;;;;;;5.51;100.00;102927.47;5007558;28;20468;-69
2023/12/16 04:54:33;;;;;;;5.97;3.47;;;;;;;5.50;100.00;102918.66;5008720;28;20230;-69
2023/12/16 04:56:59;;;;;;;8.17;3.40;;;;;;;5.45;100.00;102927.00;5004790;28;20290;-69
2023/12/16 04:59:26;;;;;;;7.13;3.90;;;;;;;5.37;100.00;102926.44;5011263;28;20248;-69
2023/12/16 05:01:52;;;;;;;6.27;3.50;;;;;;;5.37;100.00;102925.53;5005248;28;20206;-68
2023/12/16 05:04:19;;;;;;;11.43;3.73;;;;;;;5.35;100.00;102928.97;5006605;28;20255;-69
2023/12/16 05:06:45;;;;;;;7.57;3.40;;;;;;;5.31;100.00;102929.53;5018120;28;20292;-69
2023/12/16 05:09:12;;;;;;;8.77;3.80;;;;;;;5.26;100.00;102928.28;5002977;28;20263;-69
2023/12/16 05:11:39;;;;;;;7.33;3.70;;;;;;;5.26;100.00;102943.13;5007049;28;20662;-70
2023/12/16 05:14:05;;;;;;;6.87;3.67;;;;;;;5.21;100.00;102942.78;5010218;28;20299;-69
2023/12/16 05:16:32;;;;;;;9.57;3.77;;;;;;;5.18;100.00;102937.25;5008788;28;20239;-68
2023/12/16 05:19:03;;;;;;;6.77;3.77;;;;;;;5.22;100.00;102938.44;5002645;28;20202;-69
2023/12/16 05:21:30;;;;;;;5.97;3.40;;;;;;;5.23;100.00;102945.53;5009171;28;20232;-69
2023/12/16 05:23:56;;;;;;;6.47;3.00;;;;;;;5.25;100.00;102941.31;5006647;28;20305;-70
2023/12/16 05:26:23;;;;;;;8.87;3.63;;;;;;;5.18;100.00;102941.59;5000998;28;20218;-70
2023/12/16 05:28:49;;;;;;;13.90;3.67;;;;;;;5.18;100.00;102946.84;4999190;28;20213;-68
2023/12/16 05:31:15;;;;;;;10.20;3.83;;;;;;;5.13;100.00;102958.72;5007592;28;20203;-68
2023/12/16 05:33:43;;;;;;;6.00;3.40;;;;;;;5.16;100.00;102961.59;5005145;28;20208;-68
2023/12/16 05:36:10;;;;;;;6.00;3.13;;;;;;;5.11;100.00;102960.31;5016059;28;20233;-68
2023/12/16 05:38:37;;;;;;;9.53;4.03;;;;;;;5.12;100.00;102956.91;5003320;28;20195;-68
2023/12/16 05:41:04;;;;;;;6.83;3.27;;;;;;;5.11;100.00;102957.69;5005359;28;20208;-68
2023/12/16 05:43:31;;;;;;;7.43;3.63;;;;;;;5.07;100.00;102959.19;5021120;28;20210;-69
2023/12/16 05:45:57;;;;;;;11.07;4.50;;;;;;;5.07;100.00;102955.63;5011988;28;20217;-69
2023/12/16 05:48:24;;;;;;;6.13;3.37;;;;;;;5.09;100.00;102962.84;5005965;28;20205;-69
2023/12/16 05:50:50;;;;;;;10.20;3.53;;;;;;;5.12;100.00;102968.31;5003482;28;20269;-68
2023/12/16 05:53:17;;;;;;;7.93;3.47;;;;;;;5.19;100.00;102968.00;5007293;28;20210;-69
2023/12/16 05:55:47;;;;;;;7.37;3.27;;;;;;;5.18;100.00;102973.13;5014924;23;20231;-73
2023/12/16 05:58:13;;;;;;;5.37;3.20;;;;;;;5.14;100.00;102978.94;4982872;28;20550;-73
2023/12/16 06:00:42;;;;;;;7.87;3.50;;;;;;;5.08;100.00;102970.59;4979628;28;20752;-74
2023/12/16 06:03:08;;;;;;;6.70;3.80;;;;;;;5.09;100.00;102975.97;4981458;28;20210;-72
2023/12/16 06:05:35;;;;;;;8.20;3.90;;;;;;;5.15;100.00;102981.69;4986384;28;20222;-72
2023/12/16 06:08:02;;;;;;;7.90;3.33;;;;;;;5.08;100.00;102975.84;4985431;28;20203;-72
2023/12/16 06:10:28;;;;;;;7.23;3.57;;;;;;;5.02;100.00;102979.84;4985231;28;20207;-73
2023/12/16 06:12:54;;;;;;;6.17;3.80;;;;;;;4.96;100.00;102974.13;4986402;28;20206;-72
2023/12/16 06:15:21;;;;;;;8.90;3.23;;;;;;;4.89;100.00;102974.44;5006205;28;21161;-72
2023/12/16 06:17:47;;;;;;;11.27;3.47;;;;;;;4.86;100.00;102978.53;4988202;28;20726;-73
2023/12/16 06:20:14;;;;;;;7.20;3.53;;;;;;;4.80;100.00;102981.56;4980819;28;20683;-71
2023/12/16 06:22:41;;;;;;;7.07;3.30;;;;;;;4.81;100.00;102982.53;4988033;28;20246;-74
2023/12/16 06:25:07;;;;;;;10.37;3.27;;;;;;;5.01;100.00;102977.09;4990227;28;20222;-71
2023/12/16 06:27:34;;;;;;;8.27;4.40;;;;;;;4.95;100.00;102968.75;4985698;28;20211;-71
2023/12/16 06:30:00;;;;;;;7.50;3.40;;;;;;;4.90;100.00;102983.25;4991663;28;20215;-72
2023/12/16 06:32:26;;;;;;;7.83;3.27;;;;;;;4.87;100.00;102978.66;4995023;28;20701;-72
2023/12/16 06:34:53;;;;;;;10.17;3.77;;;;;;;4.92;100.00;102979.03;4993447;28;20227;-72
2023/12/16 06:37:19;;;;;;;11.67;4.17;;;;;;;4.83;100.00;102967.81;4993673;28;20203;-70
2023/12/16 06:39:48;;;;;;;7.70;3.70;;;;;;;4.88;100.00;102983.13;4991190;28;20204;-72
2023/12/16 06:42:14;;;;;;;7.77;3.23;;;;;;;5.04;100.00;102979.97;4988101;28;20265;-72
2023/12/16 06:44:42;;;;;;;6.20;3.57;;;;;;;5.01;100.00;102982.34;4988660;28;20218;-72
2023/12/16 06:47:08;;;;;;;9.27;4.17;;;;;;;4.97;100.00;102975.94;4986737;28;20210;-72
2023/12/16 06:49:35;;;;;;;9.90;3.67;;;;;;;4.93;100.00;102986.09;5003161;28;20222;-72
2023/12/16 06:52:01;;;;;;;7.07;3.13;;;;;;;5.03;100.00;102986.91;4988224;28;20263;-72
2023/12/16 06:54:28;;;;;;;6.93;3.53;;;;;;;5.06;100.00;102994.13;4987367;28;20285;-72
2023/12/16 06:56:55;;;;;;;5.57;3.43;;;;;;;4.98;100.00;102990.91;4990577;28;20294;-74
2023/12/16 06:59:21;;;;;;;5.87;3.33;;;;;;;4.98;100.00;102980.41;4990457;28;20214;-72
2023/12/16 07:01:48;;;;;;;9.00;3.67;;;;;;;4.92;100.00;102994.78;4988300;28;20682;-72
2023/12/16 07:04:14;;;;;;;9.00;3.90;;;;;;;4.89;100.00;102990.19;4988679;28;20262;-72
2023/12/16 07:06:41;;;;;;;8.07;3.50;;;;;;;4.86;100.00;102989.97;4988368;28;20230;-72
2023/12/16 07:09:07;;;;;;;5.50;3.80;;;;;;;5.06;100.00;103001.09;4989610;28;20212;-72
2023/12/16 07:11:39;;;;;;;11.70;3.70;;;;;;;4.99;100.00;103000.63;4984824;28;20214;-72
2023/12/16 07:14:05;;;;;;;6.40;3.63;;;;;;;5.12;100.00;103007.72;4989005;28;20203;-73
2023/12/16 07:16:32;;;;;;;10.50;3.77;;;;;;;5.25;100.00;103006.97;4988652;28;20296;-72
2023/12/16 07:18:58;;;;;;;5.73;3.50;;;;;;;5.20;100.00;103014.50;4986996;28;20255;-72
2023/12/16 07:21:27;;;;;;;8.00;3.33;;;;;;;5.25;100.00;103021.03;4985800;28;20208;-72
2023/12/16 07:23:54;;;;;;;9.63;3.77;;;;;;;5.22;100.00;103017.25;4986912;28;20250;-72
2023/12/16 07:26:20;;;;;;;4.90;3.07;;;;;;;5.24;100.00;103016.56;4988654;28;20610;-72
2023/12/16 07:28:47;;;;;;;7.37;3.30;;;;;;;5.26;100.00;103016.69;4988924;28;20835;-73
2023/12/16 07:31:13;;;;;;;7.87;3.50;;;;;;;5.19;100.00;103016.97;4992159;28;20211;-72
2023/12/16 07:33:42;;;;;;;6.60;3.30;;;;;;;5.15;100.00;103015.84;4992123;28;20206;-72
2023/12/16 07:36:09;;;;;;;6.50;3.30;;;;;;;5.14;100.00;103014.00;4989330;28;20220;-72
2023/12/16 07:38:35;;;;;;;5.43;3.27;;;;;;;5.16;100.00;103016.75;4989346;28;20205;-73
2023/12/16 07:41:02;;;;;;;7.00;3.37;;;;;;;5.14;100.00;103007.84;4986063;28;20210;-72
2023/12/16 07:43:28;;;;;;;6.83;3.60;;;;;;;5.26;100.00;103016.69;4987668;28;20289;-70
2023/12/16 07:45:54;;;;;;;4.57;3.13;;;;;;;5.25;100.00;103012.22;4992979;28;20317;-72
2023/12/16 07:48:21;;;;;;;10.80;3.70;;;;;;;5.27;100.00;103015.88;4980248;28;20204;-73
2023/12/16 07:50:47;;;;;;;8.53;4.13;;;;;;;5.47;100.00;103025.28;5001326;28;20294;-73
2023/12/16 07:53:14;;;;;;;11.23;3.67;;;;;;;5.48;100.00;103013.97;4989016;28;20207;-72
2023/12/16 07:55:40;;;;;;;8.90;3.60;;;;;;;5.50;100.00;103012.38;4986849;28;20235;-72
2023/12/16 07:58:07;;;;;;;8.63;3.67;;;;;;;5.53;100.00;103013.50;4985640;28;20199;-72
2023/12/16 08:00:33;;;;;;;7.33;3.70;;;;;;;5.64;100.00;103020.53;4989472;28;20205;-72
2023/12/16 08:03:00;;;;;;;7.93;4.27;;;;;;;5.71;100.00;103016.63;4987564;28;20778;-72
2023/12/16 08:05:26;;;;;;;7.03;3.67;;;;;;;5.67;100.00;103025.09;4998149;28;20226;-72
2023/12/16 08:07:53;;;;;;;6.73;3.40;;;;;;;5.82;100.00;103028.84;4993429;28;20205;-72
2023/12/16 08:10:19;;;;;;;7.83;3.50;;;;;;;5.79;100.00;103032.97;4990537;28;20214;-72
2023/12/16 08:12:46;;;;;;;7.30;3.83;;;;;;;5.77;100.00;103034.56;5000355;28;20203;-73
2023/12/16 08:15:12;;;;;;;6.67;3.50;;;;;;;5.75;100.00;103030.91;4989180;28;20597;-72
2023/12/16 08:17:39;;;;;;;6.27;3.40;;;;;;;5.87;100.00;103040.63;4988898;28;20617;-72
2023/12/16 08:20:06;;;;;;;8.13;4.00;;;;;;;5.94;100.00;103052.56;4986611;28;20588;-73
2023/12/16 08:22:34;;;;;;;12.10;3.80;;;;;;;5.97;100.00;103044.88;4984525;28;20203;-72
2023/12/16 08:25:01;;;;;;;5.70;3.40;;;;;;;6.05;100.00;103058.63;4987322;28;20601;-72
2023/12/16 08:27:27;;;;;;;5.47;3.40;;;;;;;5.95;100.00;103050.03;4983945;28;20318;-71
2023/12/16 08:29:55;;;;;;;7.43;3.60;;;;;;;5.98;100.00;103059.88;4985607;28;20270;-72
2023/12/16 08:32:21;;;;;;;8.53;4.00;;;;;;;5.94;100.00;103061.38;4989113;28;20199;-72
2023/12/16 08:34:47;;;;;;;8.47;3.60;;;;;;;5.93;100.00;103058.63;5003517;28;20232;-72
2023/12/16 08:37:14;;;;;;;5.43;3.57;;;;;;;6.02;100.00;103071.56;4985373;28;20315;-73
2023/12/16 08:39:40;;;;;;;6.57;3.40;;;;;;;6.12;100.00;103067.09;4987960;28;20207;-73
2023/12/16 08:42:07;;;;;;;9.53;3.47;;;;;;;6.07;100.00;103068.47;4984755;28;20287;-72
2023/12/16 08:44:34;;;;;;;8.07;3.73;;;;;;;6.09;100.00;103072.13;4984996;28;20206;-72
2023/12/16 08:47:01;;;;;;;8.70;3.73;;;;;;;6.13;100.00;103079.44;4989838;28;20586;-72
2023/12/16 08:49:28;;;;;;;13.10;4.10;;;;;;;6.23;100.00;103089.84;4989962;28;20208;-72
2023/12/16 08:51:57;;;;;;;6.67;3.90;;;;;;;6.20;100.00;103086.06;4985777;28;20211;-72
2023/12/16 08:54:24;;;;;;;7.47;4.03;;;;;;;6.22;100.00;103087.09;4987642;28;20198;-69
2023/12/16 08:56:50;;;;;;;10.67;3.60;;;;;;;6.25;100.00;103089.97;4985728;28;20661;-74
2023/12/16 08:59:16;;;;;;;10.87;3.70;;;;;;;6.25;100.00;103088.25;4980701;28;20290;-73
2023/12/16 09:01:47;;;;;;;8.17;4.03;;;;;;;6.34;100.00;103081.81;4996107;28;20207;-72
2023/12/16 09:04:14;;;;;;;7.77;3.63;;;;;;;6.38;100.00;103087.41;4985571;28;20197;-72
2023/12/16 09:06:43;;;;;;;5.53;3.23;;;;;;;6.47;100.00;103084.56;4985884;28;20620;-72
2023/12/16 09:09:11;;;;;;;6.33;3.73;;;;;;;6.51;100.00;103074.38;5004953;28;20231;-72
2023/12/16 09:11:40;;;;;;;7.00;3.90;;;;;;;6.60;100.00;103082.94;4985809;28;20210;-72
2023/12/16 09:14:07;;;;;;;12.67;4.07;;;;;;;6.74;100.00;103086.56;4986122;28;20200;-72
2023/12/16 09:16:34;;;;;;;7.00;3.10;;;;;;;6.83;100.00;103083.69;4992023;28;20459;-73
2023/12/16 09:19:01;;;;;;;6.87;3.30;;;;;;;6.94;100.00;103088.00;4990638;28;20208;-72
2023/12/16 09:21:28;;;;;;;9.50;3.63;;;;;;;6.96;100.00;103093.38;4990527;28;20196;-72
2023/12/16 09:23:55;;;;;;;6.63;3.30;;;;;;;6.97;100.00;103082.03;4981943;28;20919;-69
2023/12/16 09:26:23;;;;;;;6.27;3.60;;;;;;;7.00;100.00;103084.88;4988122;28;20221;-72
2023/12/16 09:28:50;;;;;;;6.77;3.40;;;;;;;7.14;100.00;103085.03;4985714;28;20632;-72
2023/12/16 09:31:17;;;;;;;5.90;3.17;;;;;;;7.28;100.00;103086.03;4988025;28;20204;-72
2023/12/16 09:33:43;;;;;;;8.00;3.60;;;;;;;7.38;100.00;103075.31;4987200;28;20294;-72
2023/12/16 09:36:14;;;;;;;6.23;3.37;;;;;;;7.51;100.00;103090.25;5003682;28;20232;-72
2023/12/16 09:38:41;;;;;;;8.80;3.50;;;;;;;7.49;100.00;103084.88;4994428;28;20210;-72
2023/12/16 09:41:42;;;;;;;7.40;3.30;;;;;;;7.65;100.00;103088.56;4996453;28;20208;-72
2023/12/16 09:44:13;;;;;;;7.80;3.73;;;;;;;7.75;100.00;103077.84;4981095;28;20221;-69
2023/12/16 09:46:43;;;;;;;6.23;3.30;;;;;;;7.82;100.00;103073.06;4987538;28;20312;-70
2023/12/16 09:49:12;;;;;;;4.27;3.10;;;;;;;7.93;100.00;103071.16;4998775;28;20210;-71
2023/12/16 09:51:42;;;;;;;5.27;3.50;;;;;;;7.96;100.00;103073.97;4994428;28;20210;-70
2023/12/16 09:54:09;;;;;;;10.67;4.00;;;;;;;8.02;100.00;103071.78;4991587;28;20292;-70
2023/12/16 09:56:37;;;;;;;9.63;3.30;;;;;;;7.96;100.00;103063.44;4994079;28;20288;-70
2023/12/16 09:59:06;;;;;;;9.03;3.57;;;;;;;8.02;100.00;103074.44;4993019;28;20695;-70
2023/12/16 10:01:32;;;;;;;4.83;3.43;;;;;;;7.98;100.00;103080.28;4997261;28;20213;-70
2023/12/16 10:04:00;;;;;;;5.60;3.43;;;;;;;7.89;100.00;103062.94;4996888;28;20275;-68
2023/12/16 10:06:27;;;;;;;7.80;3.63;;;;;;;7.94;100.00;103082.63;5012230;28;20227;-70
2023/12/16 10:08:56;;;;;;;8.87;3.73;;;;;;;7.84;100.00;103073.16;4992144;28;20203;-70
2023/12/16 10:11:23;;;;;;;8.47;3.27;;;;;;;7.89;100.00;103082.31;4995685;28;20207;-70
2023/12/16 10:13:58;;;;;;;8.87;3.67;;;;;;;8.01;100.00;103084.88;4994557;28;20216;-70
2023/12/16 10:16:24;;;;;;;7.87;3.83;;;;;;;8.02;100.00;103087.63;4987521;28;20217;-70
2023/12/16 10:18:55;;;;;;;7.57;3.50;;;;;;;7.94;100.00;103072.06;4993263;28;20232;-71
2023/12/16 10:21:32;;;;;;;9.83;4.07;;;;;;;7.99;100.00;103071.56;4990519;28;20309;-68
2023/12/16 10:24:02;;;;;;;9.30;3.87;;;;;;;8.15;100.00;103082.34;4987502;28;20262;-69
2023/12/16 10:26:30;;;;;;;8.87;4.00;;;;;;;8.21;100.00;103079.19;4991475;28;20227;-70
2023/12/16 10:28:57;;;;;;;11.80;3.97;;;;;;;8.25;100.00;103078.56;4989272;28;20227;-69
2023/12/16 10:31:24;;;;;;;7.60;3.90;;;;;;;8.36;100.00;103068.72;4990686;28;20241;-70
2023/12/16 10:33:52;;;;;;;9.37;4.13;;;;;;;8.41;100.00;103070.91;4989938;28;20386;-70
2023/12/16 10:36:18;;;;;;;9.67;4.13;;;;;;;8.49;100.00;103066.09;4994173;28;20240;-70
2023/12/16 10:38:46;;;;;;;8.07;4.20;;;;;;;8.54;100.00;103069.94;4991479;28;20208;-71
2023/12/16 10:41:13;;;;;;;10.40;3.70;;;;;;;8.62;100.00;103070.44;4990271;28;20528;-70
2023/12/16 10:43:39;;;;;;;11.73;4.07;;;;;;;8.71;100.00;103063.09;4991239;28;20663;-70
2023/12/16 10:46:06;;;;;;;8.63;4.17;;;;;;;8.77;100.00;103064.38;4990364;28;20286;-71
2023/12/16 10:48:35;;;;;;;10.30;4.10;;;;;;;8.77;100.00;103066.13;4989159;28;20258;-71
2023/12/16 10:51:05;;;;;;;7.47;3.87;;;;;;;8.81;100.00;103067.25;4988982;28;20620;-72
2023/12/16 10:53:40;;;;;;;11.40;4.20;;;;;;;8.86;100.00;103068.47;4990821;28;20212;-71
2023/12/16 10:56:22;;;;;;;9.47;4.30;;;;;;;8.95;100.00;103069.03;4987319;28;20772;-69
2023/12/16 10:59:01;;;;;;;10.10;4.00;;;;;;;9.04;100.00;103077.53;4986517;28;20605;-70
2023/12/16 11:01:31;;;;;;;6.60;3.83;;;;;;;9.05;100.00;103082.91;4998663;28;20316;-70
2023/12/16 11:04:12;;;;;;;10.03;3.80;;;;;;;9.02;100.00;103081.81;4990065;28;20212;-70
2023/12/16 11:06:59;;;;;;;7.87;4.50;;;;;;;8.97;100.00;103080.63;4990061;28;20259;-69
2023/12/16 11:09:27;;;;;;;8.03;4.20;;;;;;;8.90;100.00;103076.69;4989546;28;20260;-69
2023/12/16 11:11:56;;;;;;;7.30;4.10;;;;;;;8.86;100.00;103069.38;4989519;28;20206;-69
2023/12/16 11:14:26;;;;;;;7.47;3.70;;;;;;;9.01;100.00;103067.69;4990049;28;20680;-70
2023/12/16 11:17:08;;;;;;;8.17;3.77;;;;;;;9.11;100.00;103077.09;4989229;28;20307;-69
2023/12/16 11:19:49;;;;;;;10.00;3.57;;;;;;;8.84;100.00;103065.72;4988204;28;20731;-69
2023/12/16 11:22:21;;;;;;;10.60;3.80;;;;;;;8.98;100.00;103071.88;4990896;28;20223;-69
2023/12/16 11:24:47;;;;;;;8.70;3.47;;;;;;;9.01;100.00;103066.78;4990810;28;20228;-69